Time;durP1;ratioP1;P1;durP2;ratioP2;P2;SDS_P1;SDS_P2;PMS_P1;PMS_P2;Temp;Humidity;BMP_temperature;BMP_pressure;BME280_temperature;BME280_humidity;BME280_pressure;Samples;Min_cycle;Max_cycle;Signal;HPM_P1;HPM_P2
2024/04/06 00:02:04;;;;;;;5.03;3.70;;;15.80;99.90;;;;;;828272;173;26403;-84
2024/04/06 00:04:32;;;;;;;5.20;3.57;;;15.80;99.90;;;;;;822303;175;26408;-82
2024/04/06 00:06:59;;;;;;;5.67;3.50;;;15.70;99.90;;;;;;824325;174;26467;-84
2024/04/06 00:09:26;;;;;;;6.90;3.77;;;15.70;99.90;;;;;;823383;171;26469;-83
2024/04/06 00:11:52;;;;;;;10.97;6.27;;;15.70;99.90;;;;;;827635;173;26393;-83
2024/04/06 00:14:19;;;;;;;7.57;4.00;;;15.70;99.90;;;;;;822658;175;26415;-83
2024/04/06 00:16:45;;;;;;;5.10;3.30;;;15.70;99.90;;;;;;824064;171;26419;-83
2024/04/06 00:19:12;;;;;;;5.47;3.37;;;15.60;99.90;;;;;;829120;173;26392;-82
2024/04/06 00:21:39;;;;;;;4.10;3.07;;;15.60;99.90;;;;;;823947;172;26950;-85
2024/04/06 00:24:06;;;;;;;6.50;3.47;;;15.60;99.90;;;;;;823042;173;26974;-83
2024/04/06 00:26:32;;;;;;;5.33;3.47;;;15.60;99.90;;;;;;826408;173;26421;-85
2024/04/06 00:28:59;;;;;;;5.27;3.57;;;15.60;99.90;;;;;;829683;173;26415;-84
2024/04/06 00:31:26;;;;;;;7.77;4.03;;;15.60;99.90;;;;;;827375;171;26575;-85
2024/04/06 00:33:52;;;;;;;6.10;3.47;;;15.60;99.90;;;;;;827529;173;26423;-84
2024/04/06 00:36:19;;;;;;;6.77;3.60;;;15.60;99.90;;;;;;826779;173;26391;-85
2024/04/06 00:38:46;;;;;;;4.40;2.83;;;15.60;99.90;;;;;;828807;173;26465;-85
2024/04/06 00:41:12;;;;;;;7.87;3.23;;;15.60;99.90;;;;;;826857;171;26419;-82
2024/04/06 00:43:39;;;;;;;6.37;3.07;;;15.60;99.90;;;;;;826245;173;26419;-83
2024/04/06 00:46:06;;;;;;;4.80;2.93;;;15.60;99.90;;;;;;829423;173;26414;-84
2024/04/06 00:48:33;;;;;;;4.23;2.90;;;15.60;99.90;;;;;;829543;172;26427;-84
2024/04/06 00:50:59;;;;;;;4.57;2.90;;;15.50;99.90;;;;;;826878;173;26585;-81
2024/04/06 00:53:26;;;;;;;4.27;2.90;;;15.50;99.90;;;;;;825221;173;26428;-83
2024/04/06 00:55:53;;;;;;;5.83;2.83;;;15.50;99.90;;;;;;827539;173;26432;-83
2024/04/06 00:58:20;;;;;;;6.93;3.13;;;15.50;99.90;;;;;;830824;173;26410;-84
2024/04/06 01:00:47;;;;;;;5.17;2.90;;;15.40;99.90;;;;;;828049;173;26431;-82
2024/04/06 01:03:13;;;;;;;4.90;2.73;;;15.40;99.90;;;;;;823107;172;26399;-83
2024/04/06 01:05:40;;;;;;;4.43;3.07;;;15.40;99.90;;;;;;825277;173;26406;-83
2024/04/06 01:08:07;;;;;;;7.93;2.93;;;15.40;99.90;;;;;;828389;173;26378;-84
2024/04/06 01:10:33;;;;;;;4.60;2.50;;;15.40;99.90;;;;;;825756;172;26424;-85
2024/04/06 01:13:00;;;;;;;5.97;2.70;;;15.40;99.90;;;;;;823359;174;26409;-83
2024/04/06 01:15:32;;;;;;;5.83;3.20;;;15.30;99.90;;;;;;828162;173;27005;-81
2024/04/06 01:17:56;;;;;;;14.20;7.83;;;15.30;99.90;;;;;;824870;173;26440;-85
2024/04/06 01:20:22;;;;;;;7.33;3.47;;;15.30;99.90;;;;;;826125;173;26416;-82
2024/04/06 01:22:49;;;;;;;6.07;3.10;;;15.30;99.90;;;;;;827096;173;26412;-83
2024/04/06 01:25:16;;;;;;;5.03;3.17;;;15.20;99.90;;;;;;827280;172;26429;-84
2024/04/06 01:27:44;;;;;;;5.80;3.00;;;15.20;99.90;;;;;;827767;173;26398;-84
2024/04/06 01:30:10;;;;;;;6.97;3.13;;;15.20;99.90;;;;;;826654;173;26938;-82
2024/04/06 01:32:36;;;;;;;6.33;3.63;;;15.10;99.90;;;;;;825201;173;26408;-84
2024/04/06 01:35:03;;;;;;;8.83;3.17;;;15.00;99.90;;;;;;822898;173;26484;-83
2024/04/06 01:37:29;;;;;;;6.37;3.17;;;15.00;99.90;;;;;;827804;173;26973;-84
2024/04/06 01:39:56;;;;;;;5.27;2.97;;;14.90;99.90;;;;;;823859;173;26420;-83
2024/04/06 01:42:23;;;;;;;4.17;2.80;;;14.90;99.90;;;;;;828243;173;27010;-85
2024/04/06 01:44:49;;;;;;;6.30;3.07;;;14.70;99.90;;;;;;829020;172;26401;-84
2024/04/06 01:47:16;;;;;;;3.63;2.60;;;14.70;99.90;;;;;;830069;173;26383;-85
2024/04/06 01:49:43;;;;;;;5.17;2.60;;;14.60;99.90;;;;;;826237;173;26403;-84
2024/04/06 01:52:09;;;;;;;4.80;3.40;;;14.60;99.90;;;;;;828809;173;26430;-83
2024/04/06 01:54:36;;;;;;;6.87;2.80;;;14.70;99.90;;;;;;824624;173;26402;-84
2024/04/06 01:57:03;;;;;;;6.13;3.43;;;14.70;99.90;;;;;;827624;172;26401;-84
2024/04/06 01:59:33;;;;;;;5.70;3.30;;;14.70;99.90;;;;;;826322;173;26559;-83
2024/04/06 02:01:57;;;;;;;6.10;3.23;;;14.70;99.90;;;;;;829860;173;26405;-85
2024/04/06 02:04:24;;;;;;;5.57;2.90;;;14.70;99.90;;;;;;823537;173;26392;-83
2024/04/06 02:06:51;;;;;;;7.23;3.37;;;14.70;99.90;;;;;;828942;173;26407;-85
2024/04/06 02:09:17;;;;;;;5.83;3.43;;;14.60;99.90;;;;;;827351;173;26409;-84
2024/04/06 02:11:44;;;;;;;6.63;3.10;;;14.50;99.90;;;;;;826466;170;26580;-83
2024/04/06 02:14:11;;;;;;;8.40;3.10;;;14.50;99.90;;;;;;824908;173;26423;-85
2024/04/06 02:16:38;;;;;;;6.47;3.23;;;14.40;99.90;;;;;;825626;173;26391;-84
2024/04/06 02:19:05;;;;;;;6.37;2.87;;;14.50;99.90;;;;;;828967;173;26444;-82
2024/04/06 02:21:32;;;;;;;5.40;3.07;;;14.40;99.90;;;;;;825720;173;26376;-84
2024/04/06 02:24:00;;;;;;;7.17;3.00;;;14.40;99.90;;;;;;827619;173;26413;-82
2024/04/06 02:26:27;;;;;;;6.13;3.10;;;14.40;99.90;;;;;;825124;173;26775;-82
2024/04/06 02:28:54;;;;;;;4.57;2.80;;;14.30;99.90;;;;;;827183;173;26423;-83
2024/04/06 02:31:22;;;;;;;5.83;3.07;;;14.40;99.90;;;;;;824914;171;26594;-82
2024/04/06 02:33:48;;;;;;;6.23;2.73;;;14.40;99.90;;;;;;823788;173;26416;-83
2024/04/06 02:36:15;;;;;;;5.93;2.80;;;14.40;99.90;;;;;;825771;172;26433;-83
2024/04/06 02:38:42;;;;;;;3.60;2.87;;;14.40;99.90;;;;;;829387;173;26403;-84
2024/04/06 02:41:09;;;;;;;7.60;3.13;;;14.40;99.90;;;;;;824912;173;26983;-82
2024/04/06 02:43:35;;;;;;;7.27;3.30;;;14.30;99.90;;;;;;826934;173;26428;-85
2024/04/06 02:46:03;;;;;;;7.37;3.27;;;14.40;99.90;;;;;;828881;173;26452;-82
2024/04/06 02:48:30;;;;;;;8.17;3.03;;;14.30;99.90;;;;;;826372;173;26459;-82
2024/04/06 02:50:57;;;;;;;11.37;3.50;;;14.30;99.90;;;;;;822298;174;26451;-85
2024/04/06 02:53:23;;;;;;;4.93;3.00;;;14.40;99.90;;;;;;828295;173;27011;-82
2024/04/06 02:55:50;;;;;;;7.13;3.70;;;14.40;99.90;;;;;;824476;172;26399;-83
2024/04/06 02:58:16;;;;;;;5.00;3.20;;;14.40;99.90;;;;;;828558;173;26952;-81
2024/04/06 03:00:43;;;;;;;5.53;3.10;;;14.30;99.90;;;;;;826503;173;26460;-82
2024/04/06 03:03:10;;;;;;;8.57;3.73;;;14.30;99.90;;;;;;825527;174;26399;-84
2024/04/06 03:05:37;;;;;;;7.57;3.87;;;14.30;99.90;;;;;;825082;171;26442;-81
2024/04/06 03:08:04;;;;;;;7.73;3.60;;;14.30;99.90;;;;;;827879;173;26736;-81
2024/04/06 03:10:32;;;;;;;8.43;3.50;;;14.20;99.90;;;;;;829979;173;26436;-82
2024/04/06 03:12:57;;;;;;;6.20;4.20;;;14.10;99.90;;;;;;827437;173;26452;-84
2024/04/06 03:15:24;;;;;;;3.70;2.73;;;14.10;99.90;;;;;;829465;173;26427;-82
2024/04/06 03:17:51;;;;;;;5.43;3.23;;;14.10;99.90;;;;;;824368;174;26407;-83
2024/04/06 03:20:17;;;;;;;4.90;2.93;;;14.10;99.90;;;;;;827378;173;26416;-84
2024/04/06 03:22:45;;;;;;;4.80;3.20;;;14.10;99.90;;;;;;826855;173;26412;-83
2024/04/06 03:25:11;;;;;;;5.73;2.93;;;14.00;99.90;;;;;;821703;173;26423;-82
2024/04/06 03:27:39;;;;;;;5.30;2.83;;;14.00;99.90;;;;;;828122;170;26424;-84
2024/04/06 03:30:06;;;;;;;5.93;3.00;;;14.00;99.90;;;;;;827227;173;26422;-82
2024/04/06 03:32:32;;;;;;;4.73;2.80;;;14.00;99.90;;;;;;825539;173;26412;-83
2024/04/06 03:34:59;;;;;;;7.10;2.83;;;14.00;99.90;;;;;;824263;172;26399;-83
2024/04/06 03:37:26;;;;;;;8.83;2.90;;;14.00;99.90;;;;;;823569;174;26449;-82
2024/04/06 03:39:52;;;;;;;7.20;3.10;;;14.00;99.90;;;;;;823830;173;26420;-85
2024/04/06 03:42:19;;;;;;;5.97;2.83;;;13.90;99.90;;;;;;824842;173;26468;-83
2024/04/06 03:44:46;;;;;;;5.37;3.00;;;13.90;99.90;;;;;;828014;173;26400;-82
2024/04/06 03:47:12;;;;;;;7.93;3.90;;;13.90;99.90;;;;;;824651;173;26420;-83
2024/04/06 03:49:39;;;;;;;6.30;3.10;;;13.80;99.90;;;;;;826509;173;26414;-84
2024/04/06 03:52:06;;;;;;;6.03;3.10;;;13.80;99.90;;;;;;823507;173;26420;-85
2024/04/06 03:54:33;;;;;;;7.70;3.23;;;13.70;99.90;;;;;;825298;173;26428;-82
2024/04/06 03:56:59;;;;;;;5.50;3.03;;;13.70;99.90;;;;;;822909;173;26412;-83
2024/04/06 03:59:26;;;;;;;5.67;3.20;;;13.60;99.90;;;;;;825553;174;26448;-84
2024/04/06 04:01:53;;;;;;;9.43;3.50;;;13.50;99.90;;;;;;823757;173;26730;-83
2024/04/06 04:04:20;;;;;;;8.40;3.00;;;13.50;99.90;;;;;;828406;173;26411;-83
2024/04/06 04:06:46;;;;;;;5.20;3.27;;;13.60;99.90;;;;;;827541;172;26412;-85
2024/04/06 04:09:16;;;;;;;7.33;3.20;;;13.50;99.90;;;;;;830246;170;26414;-85
2024/04/06 04:11:41;;;;;;;7.00;3.23;;;13.50;99.90;;;;;;828159;173;26556;-84
2024/04/06 04:14:07;;;;;;;6.87;3.27;;;13.50;99.90;;;;;;828454;170;26428;-82
2024/04/06 04:16:35;;;;;;;6.50;3.30;;;13.40;99.90;;;;;;824895;173;26471;-83
2024/04/06 04:19:01;;;;;;;6.47;3.17;;;13.40;99.90;;;;;;828872;173;26403;-82
2024/04/06 04:21:28;;;;;;;4.80;3.10;;;13.40;99.90;;;;;;827541;173;26538;-84
2024/04/06 04:23:55;;;;;;;5.77;3.33;;;13.40;99.90;;;;;;819414;176;26469;-82
2024/04/06 04:26:22;;;;;;;6.90;3.57;;;13.30;99.90;;;;;;825054;170;28008;-83
2024/04/06 04:28:48;;;;;;;5.63;3.43;;;13.30;99.90;;;;;;824267;173;26403;-83
2024/04/06 04:31:15;;;;;;;12.87;3.73;;;13.30;99.90;;;;;;823883;173;26436;-82
2024/04/06 04:33:42;;;;;;;5.47;3.67;;;13.30;99.90;;;;;;827750;171;26470;-83
2024/04/06 04:36:09;;;;;;;6.87;3.60;;;13.30;99.90;;;;;;825254;174;26407;-84
2024/04/06 04:38:35;;;;;;;8.83;3.73;;;13.30;99.90;;;;;;831676;170;26399;-84
2024/04/06 04:41:03;;;;;;;5.70;3.30;;;13.20;99.90;;;;;;802936;179;26426;-83
2024/04/06 04:43:29;;;;;;;6.47;3.30;;;13.30;99.90;;;;;;818523;176;26353;-84
2024/04/06 04:45:55;;;;;;;7.40;3.60;;;13.20;99.90;;;;;;802424;179;26387;-84
2024/04/06 04:48:22;;;;;;;7.80;3.70;;;13.20;99.90;;;;;;818088;176;26342;-83
2024/04/06 04:50:49;;;;;;;8.00;3.80;;;13.20;99.90;;;;;;811727;176;26458;-86
2024/04/06 04:53:15;;;;;;;8.10;3.80;;;13.20;99.90;;;;;;826698;172;26405;-86
2024/04/06 04:55:42;;;;;;;7.50;3.60;;;13.20;99.90;;;;;;828105;173;26420;-83
2024/04/06 04:58:09;;;;;;;8.37;3.43;;;13.20;99.90;;;;;;823678;173;26401;-81
2024/04/06 05:00:35;;;;;;;9.87;3.20;;;13.30;99.90;;;;;;824560;173;26432;-83
2024/04/06 05:03:02;;;;;;;9.83;3.63;;;13.30;99.90;;;;;;826872;173;26394;-83
2024/04/06 05:05:29;;;;;;;9.00;3.40;;;13.30;99.90;;;;;;822302;174;26408;-83
2024/04/06 05:07:55;;;;;;;8.93;3.93;;;13.30;99.90;;;;;;827045;172;26441;-84
2024/04/06 05:10:22;;;;;;;4.97;3.00;;;13.40;99.90;;;;;;827481;171;26469;-82
2024/04/06 05:12:49;;;;;;;8.77;3.17;;;13.40;99.90;;;;;;824853;171;26420;-81
2024/04/06 05:15:16;;;;;;;7.83;3.40;;;13.50;99.90;;;;;;823225;173;26955;-81
2024/04/06 05:17:42;;;;;;;7.97;3.50;;;13.50;99.90;;;;;;826700;173;26415;-82
2024/04/06 05:20:09;;;;;;;8.93;3.50;;;13.50;99.90;;;;;;828517;173;27036;-80
2024/04/06 05:22:36;;;;;;;6.90;3.30;;;13.40;99.90;;;;;;827689;173;26415;-80
2024/04/06 05:25:03;;;;;;;7.63;3.50;;;13.50;99.90;;;;;;827344;173;26545;-79
2024/04/06 05:27:29;;;;;;;5.40;3.33;;;13.60;99.90;;;;;;826940;173;26403;-80
2024/04/06 05:29:56;;;;;;;7.30;3.50;;;13.60;99.90;;;;;;826840;174;26452;-79
2024/04/06 05:32:22;;;;;;;6.83;3.70;;;13.60;99.90;;;;;;826650;173;26436;-80
2024/04/06 05:34:49;;;;;;;6.70;3.73;;;13.60;99.90;;;;;;827171;173;26419;-80
2024/04/06 05:37:15;;;;;;;7.17;3.23;;;13.70;99.90;;;;;;826512;174;26419;-80
2024/04/06 05:39:42;;;;;;;8.00;3.37;;;13.70;99.90;;;;;;826265;173;26450;-80
2024/04/06 05:42:09;;;;;;;5.50;3.40;;;13.80;99.90;;;;;;826258;174;26949;-80
2024/04/06 05:44:36;;;;;;;8.77;3.80;;;13.90;99.90;;;;;;826302;173;26991;-80
2024/04/06 05:47:02;;;;;;;8.57;4.00;;;14.00;99.90;;;;;;826262;174;26929;-80
2024/04/06 05:49:29;;;;;;;6.80;3.40;;;14.10;99.90;;;;;;826243;172;26436;-80
2024/04/06 05:51:55;;;;;;;9.57;3.67;;;14.10;99.90;;;;;;826190;174;26407;-79
2024/04/06 05:54:22;;;;;;;7.90;3.50;;;14.10;99.90;;;;;;825788;174;26435;-80
2024/04/06 05:56:48;;;;;;;12.33;3.53;;;14.20;99.90;;;;;;825580;173;26440;-79
2024/04/06 05:59:15;;;;;;;5.47;3.23;;;14.20;99.90;;;;;;825699;172;26425;-79
2024/04/06 06:01:42;;;;;;;5.97;3.23;;;14.20;99.90;;;;;;825796;173;26400;-78
2024/04/06 06:04:08;;;;;;;4.80;3.10;;;14.10;99.90;;;;;;825620;173;26400;-80
2024/04/06 06:06:35;;;;;;;5.63;3.00;;;14.20;99.90;;;;;;825747;174;26411;-80
2024/04/06 06:09:04;;;;;;;6.40;3.37;;;14.30;99.90;;;;;;825743;174;26420;-79
2024/04/06 06:11:28;;;;;;;5.77;3.10;;;14.30;99.90;;;;;;825465;173;26411;-79
2024/04/06 06:13:55;;;;;;;9.43;3.43;;;14.30;99.90;;;;;;825770;174;26396;-80
2024/04/06 06:16:21;;;;;;;6.07;3.17;;;14.30;99.90;;;;;;825805;173;26411;-79
2024/04/06 06:18:48;;;;;;;8.27;2.90;;;14.30;99.90;;;;;;825812;174;26436;-80
2024/04/06 06:21:15;;;;;;;9.30;3.20;;;14.30;99.90;;;;;;825814;174;26431;-79
2024/04/06 06:23:41;;;;;;;7.00;3.77;;;14.40;99.90;;;;;;825872;174;26403;-80
2024/04/06 06:26:08;;;;;;;7.57;3.13;;;14.50;99.90;;;;;;825690;174;26396;-80
2024/04/06 06:28:34;;;;;;;7.53;3.13;;;14.60;99.90;;;;;;825680;174;26427;-80
2024/04/06 06:31:03;;;;;;;6.87;3.50;;;14.70;99.90;;;;;;828724;172;26423;-79
2024/04/06 06:33:28;;;;;;;6.70;3.07;;;14.70;99.90;;;;;;827631;173;26464;-81
2024/04/06 06:35:54;;;;;;;6.40;3.57;;;14.80;99.90;;;;;;827700;173;26406;-81
2024/04/06 06:38:21;;;;;;;9.13;3.43;;;14.80;99.90;;;;;;827663;173;27610;-81
2024/04/06 06:40:48;;;;;;;8.20;3.70;;;14.80;99.90;;;;;;826794;171;26576;-80
2024/04/06 06:43:14;;;;;;;8.90;3.67;;;14.90;99.90;;;;;;826819;174;26403;-80
2024/04/06 06:45:41;;;;;;;7.40;3.73;;;14.90;99.90;;;;;;827018;173;26424;-80
2024/04/06 06:48:08;;;;;;;5.53;3.13;;;14.90;99.90;;;;;;826732;173;26426;-80
2024/04/06 06:50:34;;;;;;;9.73;3.20;;;14.90;99.90;;;;;;826444;171;26974;-80
2024/04/06 06:53:01;;;;;;;10.43;3.90;;;15.00;99.90;;;;;;826685;174;26432;-80
2024/04/06 06:55:27;;;;;;;5.27;3.33;;;15.10;99.90;;;;;;826484;174;26421;-80
2024/04/06 06:57:54;;;;;;;6.67;3.50;;;15.20;99.90;;;;;;826391;173;26398;-80
2024/04/06 07:00:22;;;;;;;7.63;3.47;;;15.20;99.90;;;;;;826297;174;26960;-79
2024/04/06 07:02:49;;;;;;;8.63;3.37;;;15.30;99.90;;;;;;826186;173;27019;-79
2024/04/06 07:05:16;;;;;;;7.17;3.60;;;15.40;99.90;;;;;;826036;173;26419;-79
2024/04/06 07:07:42;;;;;;;5.33;2.70;;;15.50;99.90;;;;;;825473;174;26395;-80
2024/04/06 07:10:09;;;;;;;8.53;3.10;;;15.60;99.90;;;;;;823985;174;26436;-80
2024/04/06 07:12:36;;;;;;;7.40;3.10;;;15.70;99.90;;;;;;825476;173;26412;-79
2024/04/06 07:15:02;;;;;;;7.07;2.97;;;15.80;99.90;;;;;;825439;174;26423;-80
2024/04/06 07:17:29;;;;;;;4.83;2.93;;;15.90;99.90;;;;;;825707;173;26388;-80
2024/04/06 07:19:55;;;;;;;8.03;3.17;;;16.00;99.90;;;;;;825594;173;26431;-80
2024/04/06 07:22:23;;;;;;;7.73;3.30;;;16.10;99.90;;;;;;825836;173;26386;-80
2024/04/06 07:24:49;;;;;;;9.57;3.37;;;16.20;99.90;;;;;;825760;174;26415;-80
2024/04/06 07:27:15;;;;;;;7.10;2.97;;;16.30;99.90;;;;;;825687;173;26718;-80
2024/04/06 07:29:42;;;;;;;13.43;3.77;;;16.30;99.90;;;;;;825637;173;26426;-79
2024/04/06 07:32:09;;;;;;;6.23;2.63;;;16.30;99.90;;;;;;825755;173;26400;-81
2024/04/06 07:34:37;;;;;;;6.43;2.90;;;16.30;99.90;;;;;;825387;174;26564;-79
2024/04/06 07:37:02;;;;;;;5.20;3.00;;;16.40;99.90;;;;;;825430;174;26423;-78
2024/04/06 07:39:28;;;;;;;5.07;2.77;;;16.50;99.90;;;;;;825364;174;26427;-78
2024/04/06 07:41:55;;;;;;;9.10;3.77;;;16.50;99.90;;;;;;827654;172;26943;-80
2024/04/06 07:44:22;;;;;;;6.17;3.03;;;16.70;99.90;;;;;;827838;173;26387;-79
2024/04/06 07:46:48;;;;;;;8.67;3.07;;;16.70;99.90;;;;;;827297;174;26407;-78
2024/04/06 07:49:15;;;;;;;10.53;3.37;;;16.80;99.90;;;;;;827151;173;26392;-78
2024/04/06 07:51:42;;;;;;;6.00;2.63;;;16.80;99.90;;;;;;826747;174;26423;-80
2024/04/06 07:54:08;;;;;;;6.83;3.37;;;16.90;99.90;;;;;;826525;173;26407;-78
2024/04/06 07:56:35;;;;;;;8.00;2.80;;;17.10;99.90;;;;;;826947;174;26481;-79
2024/04/06 07:59:01;;;;;;;8.40;3.23;;;17.10;99.90;;;;;;826724;174;26419;-79
2024/04/06 08:01:28;;;;;;;6.20;3.13;;;17.30;99.90;;;;;;826297;173;26943;-80
2024/04/06 08:03:54;;;;;;;5.23;2.90;;;17.30;99.90;;;;;;826310;173;26446;-80
2024/04/06 08:06:21;;;;;;;5.13;2.83;;;17.40;99.90;;;;;;826503;173;26452;-79
2024/04/06 08:08:48;;;;;;;7.53;3.07;;;17.50;99.90;;;;;;826382;174;26962;-80
2024/04/06 08:11:16;;;;;;;6.50;3.00;;;17.70;99.90;;;;;;826169;174;26422;-79
2024/04/06 08:13:41;;;;;;;6.50;2.80;;;17.80;99.90;;;;;;825938;174;26414;-81
2024/04/06 08:16:08;;;;;;;8.07;2.93;;;17.90;99.90;;;;;;826434;173;26541;-81
2024/04/06 08:18:35;;;;;;;7.63;2.83;;;18.10;99.90;;;;;;825865;174;26403;-80
2024/04/06 08:21:01;;;;;;;5.00;2.63;;;18.20;99.90;;;;;;826030;174;26467;-81
2024/04/06 08:23:28;;;;;;;10.27;2.90;;;18.40;99.90;;;;;;825840;173;26399;-81
2024/04/06 08:25:54;;;;;;;5.57;2.83;;;18.60;99.90;;;;;;825620;174;26400;-79
2024/04/06 08:28:21;;;;;;;6.03;2.97;;;18.70;99.90;;;;;;825160;174;26402;-80
2024/04/06 08:30:48;;;;;;;5.70;3.20;;;18.80;99.90;;;;;;825656;174;26432;-80
2024/04/06 08:33:14;;;;;;;4.67;2.80;;;18.90;99.90;;;;;;825833;173;26951;-81
2024/04/06 08:35:41;;;;;;;4.00;2.53;;;19.20;99.90;;;;;;825939;174;26400;-81
2024/04/06 08:38:13;;;;;;;7.07;2.93;;;19.20;99.90;;;;;;825624;174;26592;-80
2024/04/06 08:40:40;;;;;;;5.87;2.90;;;19.30;99.90;;;;;;825877;173;26457;-81
2024/04/06 08:43:08;;;;;;;11.10;3.83;;;19.40;99.00;;;;;;825923;174;26434;-82
2024/04/06 08:45:33;;;;;;;8.20;3.23;;;19.20;99.90;;;;;;824987;174;28016;-81
2024/04/06 08:48:00;;;;;;;6.13;3.27;;;19.40;99.60;;;;;;825949;174;26432;-81
2024/04/06 08:50:27;;;;;;;5.37;2.57;;;19.40;98.50;;;;;;825791;173;26466;-79
2024/04/06 08:52:53;;;;;;;6.27;2.97;;;19.40;97.00;;;;;;814898;173;26422;-80
2024/04/06 08:55:20;;;;;;;7.07;3.27;;;19.40;98.30;;;;;;828475;173;26438;-80
2024/04/06 08:57:48;;;;;;;6.43;2.40;;;19.40;98.20;;;;;;827926;173;26444;-80
2024/04/06 09:00:14;;;;;;;6.07;2.47;;;19.60;95.90;;;;;;827584;173;26968;-80
2024/04/06 09:02:41;;;;;;;7.67;3.00;;;19.80;95.80;;;;;;827240;173;26473;-80
2024/04/06 09:05:07;;;;;;;5.97;2.40;;;19.90;96.30;;;;;;827104;174;26403;-80
2024/04/06 09:07:34;;;;;;;4.93;2.53;;;20.00;94.80;;;;;;826923;173;26406;-80
2024/04/06 09:10:00;;;;;;;5.90;2.60;;;20.00;95.30;;;;;;826672;173;26427;-79
2024/04/06 09:12:28;;;;;;;5.30;2.70;;;20.20;93.70;;;;;;826574;174;26936;-80
2024/04/06 09:14:54;;;;;;;4.60;2.10;;;20.30;94.40;;;;;;826261;174;26406;-81
2024/04/06 09:17:22;;;;;;;6.20;2.23;;;20.40;91.20;;;;;;826168;173;26414;-80
2024/04/06 09:19:49;;;;;;;4.87;2.10;;;20.50;90.80;;;;;;826280;174;26423;-80
2024/04/06 09:22:15;;;;;;;3.83;2.27;;;20.70;87.60;;;;;;826241;173;26446;-80
2024/04/06 09:24:42;;;;;;;3.57;2.40;;;20.90;84.70;;;;;;826214;174;26921;-80
2024/04/06 09:27:11;;;;;;;4.23;2.33;;;21.10;82.40;;;;;;826238;174;26425;-80
2024/04/06 09:29:37;;;;;;;6.40;2.60;;;21.30;81.00;;;;;;825879;174;26971;-81
2024/04/06 09:32:04;;;;;;;4.87;2.47;;;21.20;87.80;;;;;;825777;174;26942;-80
2024/04/06 09:34:30;;;;;;;5.10;2.67;;;21.50;81.80;;;;;;825742;174;26403;-81
2024/04/06 09:37:06;;;;;;;4.23;2.20;;;21.60;83.00;;;;;;825959;174;26946;-81
2024/04/06 09:39:33;;;;;;;7.17;2.70;;;21.60;77.70;;;;;;825592;174;26479;-80
2024/04/06 09:42:00;;;;;;;6.00;2.43;;;21.70;81.00;;;;;;825136;174;26435;-80
2024/04/06 09:44:27;;;;;;;8.80;2.63;;;21.70;79.80;;;;;;825245;174;26439;-80
2024/04/06 09:46:54;;;;;;;6.60;2.80;;;21.70;77.80;;;;;;825312;174;26435;-80
2024/04/06 09:49:24;;;;;;;6.40;2.60;;;21.90;79.70;;;;;;825562;174;26422;-80
2024/04/06 09:51:51;;;;;;;8.77;3.37;;;22.00;81.80;;;;;;825936;174;26594;-80
2024/04/06 09:54:22;;;;;;;4.97;2.93;;;22.40;84.70;;;;;;825606;174;26414;-80
2024/04/06 09:56:49;;;;;;;5.43;2.90;;;22.40;80.70;;;;;;825609;174;26403;-80
2024/04/06 09:59:21;;;;;;;7.60;2.50;;;22.50;82.20;;;;;;825421;173;26463;-79
2024/04/06 10:01:48;;;;;;;7.23;2.53;;;22.50;85.00;;;;;;825644;174;26402;-79
2024/04/06 10:04:23;;;;;;;9.57;2.80;;;22.60;81.10;;;;;;826749;172;26414;-79
2024/04/06 10:06:51;;;;;;;4.07;2.90;;;22.70;85.20;;;;;;828005;173;26941;-81
2024/04/06 10:09:17;;;;;;;5.83;2.90;;;22.80;82.10;;;;;;827328;173;26513;-79
2024/04/06 10:11:43;;;;;;;7.67;3.07;;;22.90;81.60;;;;;;827204;174;26426;-80
2024/04/06 10:14:10;;;;;;;9.60;3.20;;;23.00;81.60;;;;;;826755;173;26395;-80
2024/04/06 10:16:39;;;;;;;5.10;2.60;;;22.80;84.50;;;;;;826777;173;26414;-79
2024/04/06 10:19:06;;;;;;;6.23;3.10;;;22.70;81.60;;;;;;826373;174;26411;-81
2024/04/06 10:21:33;;;;;;;4.83;2.60;;;22.80;86.60;;;;;;826617;174;26439;-80
2024/04/06 10:24:02;;;;;;;6.33;2.57;;;22.80;86.40;;;;;;826100;174;27030;-80
2024/04/06 10:26:29;;;;;;;5.60;2.87;;;22.70;81.70;;;;;;826129;174;26411;-80
2024/04/06 10:28:56;;;;;;;6.13;2.87;;;22.70;88.20;;;;;;826001;174;26427;-80
2024/04/06 10:31:22;;;;;;;8.70;3.30;;;22.80;82.50;;;;;;825890;174;26451;-79
2024/04/06 10:33:49;;;;;;;7.87;2.77;;;22.80;84.20;;;;;;826119;173;26411;-79
2024/04/06 10:36:16;;;;;;;5.97;2.73;;;22.80;87.50;;;;;;826213;174;27046;-79
2024/04/06 10:38:43;;;;;;;5.67;3.00;;;23.10;83.50;;;;;;826366;174;26411;-80
2024/04/06 10:41:10;;;;;;;7.20;2.57;;;23.90;78.10;;;;;;825747;174;26423;-81
2024/04/06 10:43:36;;;;;;;8.10;3.40;;;24.20;69.50;;;;;;825625;174;26452;-80
2024/04/06 10:46:03;;;;;;;4.37;2.63;;;23.80;72.00;;;;;;825492;174;26427;-81
2024/04/06 10:48:30;;;;;;;7.20;2.80;;;23.70;72.80;;;;;;825497;174;26398;-79
2024/04/06 10:50:58;;;;;;;6.17;3.07;;;24.90;70.00;;;;;;825431;174;26455;-78
2024/04/06 10:53:25;;;;;;;7.30;3.00;;;26.10;56.90;;;;;;825678;174;26419;-80
2024/04/06 10:55:53;;;;;;;5.30;2.60;;;26.40;60.00;;;;;;825854;174;26440;-82
2024/04/06 10:58:19;;;;;;;4.73;2.57;;;27.00;51.50;;;;;;825910;174;26396;-80
2024/04/06 11:00:47;;;;;;;5.80;2.97;;;27.70;53.80;;;;;;825840;174;26444;-79
2024/04/06 11:03:14;;;;;;;9.27;3.03;;;28.00;49.10;;;;;;825806;174;26473;-79
2024/04/06 11:05:41;;;;;;;6.17;2.67;;;28.60;47.70;;;;;;825739;174;26440;-80
2024/04/06 11:08:07;;;;;;;8.87;3.10;;;28.90;44.70;;;;;;825661;174;26913;-80
2024/04/06 11:10:34;;;;;;;8.73;2.83;;;29.70;45.30;;;;;;825769;173;26426;-80
2024/04/06 11:13:01;;;;;;;5.07;2.77;;;29.30;42.50;;;;;;825667;174;26396;-79
2024/04/06 11:15:27;;;;;;;6.03;2.90;;;29.90;43.40;;;;;;826431;172;26644;-79
2024/04/06 11:17:54;;;;;;;5.07;2.67;;;30.10;39.60;;;;;;828218;173;26922;-79
2024/04/06 11:20:21;;;;;;;8.97;2.57;;;30.10;41.90;;;;;;827425;173;26420;-80
2024/04/06 11:22:48;;;;;;;4.87;2.73;;;29.80;40.70;;;;;;827209;174;26478;-81
2024/04/06 11:25:17;;;;;;;6.47;2.60;;;29.50;39.70;;;;;;826913;173;26431;-79
2024/04/06 11:27:47;;;;;;;4.80;2.80;;;30.30;40.10;;;;;;826669;174;26924;-80
2024/04/06 11:30:14;;;;;;;4.50;2.70;;;30.20;37.80;;;;;;826835;174;26426;-81
2024/04/06 11:32:40;;;;;;;4.43;2.20;;;30.20;37.30;;;;;;827242;174;26442;-82
2024/04/06 11:35:07;;;;;;;9.80;3.10;;;29.90;37.60;;;;;;826612;173;26496;-79
2024/04/06 11:37:34;;;;;;;5.33;2.30;;;29.90;39.10;;;;;;826495;173;26402;-81
2024/04/06 11:40:01;;;;;;;3.80;2.00;;;30.20;37.00;;;;;;826263;174;26423;-80
2024/04/06 11:42:27;;;;;;;5.37;2.40;;;29.90;34.90;;;;;;826211;174;26969;-80
2024/04/06 11:44:54;;;;;;;5.53;2.90;;;30.10;38.20;;;;;;826328;174;26396;-80
2024/04/06 11:47:21;;;;;;;5.60;2.37;;;30.10;37.60;;;;;;826305;171;26957;-80
2024/04/06 11:49:49;;;;;;;4.10;2.23;;;30.20;36.10;;;;;;826363;174;26439;-79
2024/04/06 11:52:15;;;;;;;5.10;3.20;;;29.90;37.00;;;;;;826231;174;26930;-80
2024/04/06 11:54:42;;;;;;;3.40;2.03;;;30.10;40.00;;;;;;826044;173;26402;-80
2024/04/06 11:57:09;;;;;;;6.13;2.37;;;30.90;35.20;;;;;;826052;171;26438;-80
2024/04/06 11:59:35;;;;;;;5.30;2.67;;;31.40;33.10;;;;;;825885;174;26419;-80
2024/04/06 12:02:02;;;;;;;5.27;2.10;;;31.10;35.50;;;;;;825812;174;26404;-80
2024/04/06 12:04:29;;;;;;;5.53;2.50;;;30.80;31.80;;;;;;825617;174;26412;-80
2024/04/06 12:06:56;;;;;;;6.00;2.47;;;30.90;35.90;;;;;;826005;174;26975;-80
2024/04/06 12:09:22;;;;;;;5.15;2.28;;;31.20;34.60;;;;;;825663;174;26404;-79
2024/04/06 12:11:48;;;;;;;4.50;2.40;;;31.50;32.10;;;;;;825853;174;26416;-79
2024/04/06 12:14:15;;;;;;;4.50;2.05;;;31.10;34.10;;;;;;825747;174;26959;-82
2024/04/06 12:16:42;;;;;;;8.35;3.45;;;30.40;33.20;;;;;;825891;173;26949;-81
2024/04/06 12:19:09;;;;;;;5.93;2.42;;;30.30;35.40;;;;;;825956;173;26558;-81
2024/04/06 12:21:36;;;;;;;4.28;2.47;;;30.60;34.90;;;;;;825988;173;26420;-80
2024/04/06 12:24:03;;;;;;;4.72;2.62;;;30.50;33.20;;;;;;825635;174;26943;-79
2024/04/06 12:26:30;;;;;;;4.93;2.90;;;31.20;32.80;;;;;;825729;173;26547;-79
2024/04/06 12:28:58;;;;;;;5.37;2.45;;;31.10;33.00;;;;;;828729;172;26440;-79
2024/04/06 12:31:26;;;;;;;4.37;2.10;;;31.70;30.20;;;;;;827626;173;26427;-79
2024/04/06 12:33:52;;;;;;;5.82;2.50;;;31.50;30.70;;;;;;827086;173;26411;-79
2024/04/06 12:36:18;;;;;;;4.95;2.55;;;31.20;32.00;;;;;;826687;173;26418;-80
2024/04/06 12:38:45;;;;;;;8.25;2.75;;;30.30;30.90;;;;;;827146;174;26492;-80
2024/04/06 12:41:12;;;;;;;5.28;2.80;;;30.10;31.80;;;;;;826932;173;26423;-78
2024/04/06 12:43:38;;;;;;;5.80;2.60;;;30.40;31.90;;;;;;826764;171;26580;-80